Time;durP1;ratioP1;P1;durP2;ratioP2;P2;SDS_P1;SDS_P2;PMS_P1;PMS_P2;Temp;Humidity;BMP_temperature;BMP_pressure;BME280_temperature;BME280_humidity;BME280_pressure;Samples;Min_cycle;Max_cycle;Signal;HPM_P1;HPM_P2
2022/08/19 00:01:45;;;;;;;16.90;15.40;;;;;;;19.65;100.00;101253.16;5248214;28;20025;-69
2022/08/19 00:04:18;;;;;;;16.30;14.90;;;;;;;19.64;100.00;101252.34;5251486;28;20419;-69
2022/08/19 00:06:50;;;;;;;17.23;15.68;;;;;;;19.50;100.00;101245.09;5251525;28;20029;-68
2022/08/19 00:09:23;;;;;;;19.63;15.90;;;;;;;19.52;100.00;101237.78;5253776;28;20024;-69
2022/08/19 00:11:55;;;;;;;17.63;16.02;;;;;;;19.41;100.00;101246.19;5253312;28;20446;-70
2022/08/19 00:14:31;;;;;;;17.33;15.63;;;;;;;19.39;100.00;101248.19;5251226;28;20256;-72
2022/08/19 00:17:03;;;;;;;16.95;15.35;;;;;;;19.36;100.00;101248.56;5258770;28;20024;-69
2022/08/19 00:19:36;;;;;;;15.67;14.37;;;;;;;19.35;100.00;101237.09;5267751;28;20498;-67
2022/08/19 00:22:08;;;;;;;16.38;15.07;;;;;;;19.32;100.00;101242.78;5264333;28;20135;-67
2022/08/19 00:24:40;;;;;;;16.98;15.38;;;;;;;19.27;100.00;101244.31;5263583;28;20566;-67
2022/08/19 00:27:12;;;;;;;18.48;16.67;;;;;;;19.27;100.00;101242.47;5263180;28;20048;-67
2022/08/19 00:29:44;;;;;;;16.80;15.37;;;;;;;19.24;100.00;101239.34;5266308;28;20116;-67
2022/08/19 00:32:15;;;;;;;16.23;14.83;;;;;;;19.22;100.00;101244.03;5265419;28;20033;-67
2022/08/19 00:34:46;;;;;;;16.67;15.23;;;;;;;19.20;100.00;101239.69;5266029;28;20028;-67
2022/08/19 00:37:19;;;;;;;16.80;15.07;;;;;;;19.18;100.00;101247.03;5270133;28;20271;-67
2022/08/19 00:39:51;;;;;;;15.13;13.82;;;;;;;19.17;100.00;101248.03;5249874;28;20040;-67
2022/08/19 00:42:22;;;;;;;17.27;15.73;;;;;;;19.15;100.00;101250.03;5264878;28;20020;-67
2022/08/19 00:44:53;;;;;;;16.73;15.10;;;;;;;19.09;100.00;101245.44;5267770;28;20045;-67
2022/08/19 00:47:25;;;;;;;17.00;15.47;;;;;;;19.06;100.00;101253.75;5267860;28;20021;-67
2022/08/19 00:49:58;;;;;;;16.70;15.30;;;;;;;19.12;100.00;101254.84;5257196;28;20510;-67
2022/08/19 00:52:33;;;;;;;16.33;14.82;;;;;;;19.05;100.00;101254.72;5273446;28;20051;-67
2022/08/19 00:55:10;;;;;;;17.33;15.73;;;;;;;19.02;100.00;101255.09;5272915;28;20039;-67
2022/08/19 00:57:51;;;;;;;17.50;15.93;;;;;;;19.07;100.00;101249.25;5251962;28;20403;-67
2022/08/19 01:00:25;;;;;;;18.83;17.13;;;;;;;18.94;100.00;101249.81;5270870;28;20071;-67
2022/08/19 01:02:57;;;;;;;21.17;19.20;;;;;;;18.96;100.00;101250.47;5272520;28;20056;-67
2022/08/19 01:05:29;;;;;;;19.67;17.80;;;;;;;19.01;100.00;101244.63;5273510;28;20100;-67
2022/08/19 01:08:04;;;;;;;19.90;17.90;;;;;;;18.99;100.00;101246.66;5273049;28;20115;-67
2022/08/19 01:10:40;;;;;;;19.52;17.83;;;;;;;18.98;100.00;101251.16;5254645;28;20024;-67
2022/08/19 01:13:15;;;;;;;20.50;18.67;;;;;;;18.97;100.00;101254.78;5269622;28;20387;-67
2022/08/19 01:15:52;;;;;;;21.23;19.42;;;;;;;18.98;100.00;101253.81;5270264;28;20032;-67
2022/08/19 01:18:26;;;;;;;21.20;19.30;;;;;;;18.89;100.00;101255.66;5269319;28;20035;-67
2022/08/19 01:21:05;;;;;;;19.58;17.73;;;;;;;18.99;100.00;101246.66;5271841;28;20093;-67
2022/08/19 01:23:42;;;;;;;20.35;18.38;;;;;;;18.87;100.00;101252.38;5272009;28;20380;-67
2022/08/19 01:26:22;;;;;;;19.92;18.13;;;;;;;18.99;100.00;101250.13;5269632;28;20389;-67
2022/08/19 01:28:56;;;;;;;20.63;18.83;;;;;;;18.83;100.00;101247.59;5267307;28;20418;-67
2022/08/19 01:31:32;;;;;;;20.77;18.90;;;;;;;18.76;100.00;101246.63;5266045;28;20111;-67
2022/08/19 01:34:03;;;;;;;19.02;17.17;;;;;;;18.74;100.00;101245.97;5272144;28;20035;-67
2022/08/19 01:36:42;;;;;;;20.52;18.42;;;;;;;18.81;100.00;101250.41;5271288;28;20029;-67
2022/08/19 01:39:17;;;;;;;20.08;18.17;;;;;;;18.73;100.00;101241.66;5267929;28;20103;-67
2022/08/19 01:41:49;;;;;;;19.02;17.48;;;;;;;18.58;100.00;101225.59;5269161;28;20449;-67
2022/08/19 01:44:23;;;;;;;20.03;18.27;;;;;;;18.68;100.00;101245.63;5271267;28;20074;-67
2022/08/19 01:46:55;;;;;;;20.13;18.00;;;;;;;18.63;100.00;101245.31;5271249;28;20048;-67
2022/08/19 01:49:26;;;;;;;19.73;18.08;;;;;;;18.65;100.00;101242.50;5270731;28;20541;-67
2022/08/19 01:51:59;;;;;;;21.47;19.53;;;;;;;18.66;100.00;101236.19;5266095;28;20020;-67
2022/08/19 01:54:31;;;;;;;20.08;18.27;;;;;;;18.59;100.00;101241.34;5271569;28;20021;-67
2022/08/19 01:57:10;;;;;;;19.87;17.97;;;;;;;18.73;100.00;101239.00;5273085;28;20257;-67
2022/08/19 01:59:42;;;;;;;21.65;19.48;;;;;;;18.62;100.00;101240.19;5254266;28;20020;-67
2022/08/19 02:02:13;;;;;;;23.05;20.80;;;;;;;18.64;100.00;101249.63;5263955;28;20029;-69
2022/08/19 02:04:45;;;;;;;24.03;21.83;;;;;;;18.61;100.00;101249.16;5268993;28;20028;-69
2022/08/19 02:07:20;;;;;;;24.48;22.23;;;;;;;18.66;100.00;101246.78;5271974;28;20121;-67
2022/08/19 02:09:52;;;;;;;24.20;21.90;;;;;;;18.52;100.00;101251.00;5269590;28;20023;-67
2022/08/19 02:12:23;;;;;;;24.30;21.80;;;;;;;18.57;100.00;101256.63;5267069;28;20792;-67
2022/08/19 02:14:54;;;;;;;25.57;23.00;;;;;;;18.60;100.00;101261.59;5271196;28;20053;-67
2022/08/19 02:17:28;;;;;;;25.17;22.90;;;;;;;18.57;100.00;101256.63;5250737;28;20089;-67
2022/08/19 02:20:00;;;;;;;24.65;22.23;;;;;;;18.53;100.00;101267.75;5271080;28;20086;-67
2022/08/19 02:22:32;;;;;;;24.92;22.38;;;;;;;18.55;100.00;101265.75;5270357;28;20056;-67
2022/08/19 02:25:04;;;;;;;24.60;22.30;;;;;;;18.50;100.00;101271.56;5269581;28;20033;-67
2022/08/19 02:27:36;;;;;;;25.60;23.00;;;;;;;18.48;100.00;101266.41;5247989;28;20028;-67
2022/08/19 02:30:11;;;;;;;25.48;22.92;;;;;;;18.51;100.00;101264.44;5267628;28;20056;-67
2022/08/19 02:32:43;;;;;;;25.45;22.88;;;;;;;18.48;100.00;101277.03;5269116;28;20017;-67
2022/08/19 02:35:14;;;;;;;24.60;22.20;;;;;;;18.52;100.00;101271.38;5269541;28;20021;-67
2022/08/19 02:40:36;;;;;;;24.27;21.95;;;;;;;18.44;100.00;101275.72;5270911;28;20028;-67
2022/08/19 02:43:08;;;;;;;24.35;22.05;;;;;;;18.50;100.00;101278.72;5267241;28;20026;-67
2022/08/19 02:45:40;;;;;;;24.80;22.48;;;;;;;18.44;100.00;101265.13;5254867;28;20458;-67
2022/08/19 02:48:11;;;;;;;23.17;20.97;;;;;;;18.48;100.00;101274.38;5256422;28;20017;-66
2022/08/19 02:50:43;;;;;;;24.27;21.90;;;;;;;18.48;100.00;101281.53;5268631;28;20074;-67
2022/08/19 02:53:14;;;;;;;24.23;21.67;;;;;;;18.43;100.00;101282.03;5264771;28;20032;-67
2022/08/19 02:55:47;;;;;;;24.30;22.02;;;;;;;18.42;100.00;101287.53;5269902;28;20030;-67
2022/08/19 02:58:20;;;;;;;24.37;22.00;;;;;;;18.42;100.00;101279.56;5263226;28;20036;-67
2022/08/19 03:00:54;;;;;;;26.73;24.20;;;;;;;18.40;100.00;101289.50;5266443;28;20017;-67
2022/08/19 03:03:26;;;;;;;26.92;24.23;;;;;;;18.34;100.00;101282.25;5267936;28;20033;-67
2022/08/19 03:06:15;;;;;;;28.80;26.17;;;;;;;18.60;100.00;101268.69;5268121;28;20035;-67
2022/08/19 03:08:49;;;;;;;27.67;24.98;;;;;;;18.40;100.00;101278.91;5270201;28;20053;-67
2022/08/19 03:11:26;;;;;;;27.00;24.50;;;;;;;18.43;100.00;101282.03;5266965;28;20033;-67
2022/08/19 03:13:59;;;;;;;28.83;25.98;;;;;;;18.32;100.00;101281.56;5269388;28;20442;-67
2022/08/19 03:16:40;;;;;;;29.30;26.55;;;;;;;18.33;100.00;101277.91;5265978;28;20025;-67
2022/08/19 03:19:12;;;;;;;30.75;27.67;;;;;;;18.27;100.00;101281.28;5267594;28;20043;-67
2022/08/19 03:21:44;;;;;;;29.58;26.77;;;;;;;18.28;100.00;101283.75;5265890;28;20025;-67
2022/08/19 03:24:18;;;;;;;30.17;27.03;;;;;;;18.24;100.00;101283.25;5250186;28;20017;-67
2022/08/19 03:26:55;;;;;;;30.45;27.45;;;;;;;18.25;100.00;101278.78;5267876;28;20063;-67
2022/08/19 03:29:28;;;;;;;30.70;27.80;;;;;;;18.29;100.00;101274.78;5269672;28;20028;-67
2022/08/19 03:32:02;;;;;;;31.63;28.60;;;;;;;18.23;100.00;101278.94;5247463;28;20048;-67
2022/08/19 03:34:36;;;;;;;32.05;29.02;;;;;;;18.19;100.00;101271.50;5268142;28;20027;-67
2022/08/19 03:37:12;;;;;;;32.38;29.35;;;;;;;18.22;100.00;101273.78;5268138;28;20033;-67
2022/08/19 03:39:43;;;;;;;34.47;30.85;;;;;;;18.17;100.00;101276.97;5266591;28;20103;-67
2022/08/19 03:42:16;;;;;;;31.98;28.88;;;;;;;18.22;100.00;101272.00;5264909;28;20020;-66
2022/08/19 03:44:48;;;;;;;32.70;29.75;;;;;;;18.06;100.00;101253.47;5266751;28;20056;-67
2022/08/19 03:47:19;;;;;;;33.63;30.30;;;;;;;18.22;100.00;101272.00;5266503;28;20119;-66
2022/08/19 03:49:50;;;;;;;33.10;29.90;;;;;;;18.20;100.00;101270.50;5266042;28;20119;-67
2022/08/19 03:52:22;;;;;;;33.40;30.17;;;;;;;18.17;100.00;101269.00;5267714;28;20113;-67
2022/08/19 03:54:53;;;;;;;33.73;30.33;;;;;;;18.12;100.00;101260.75;5268235;28;20020;-67
2022/08/19 03:57:24;;;;;;;34.85;31.50;;;;;;;18.16;100.00;101262.06;5268093;28;20013;-67
2022/08/19 03:59:56;;;;;;;35.15;31.92;;;;;;;18.12;100.00;101254.63;5267081;28;20033;-67
2022/08/19 04:02:27;;;;;;;35.85;32.33;;;;;;;18.11;100.00;101267.06;5265228;28;20111;-67
2022/08/19 04:04:58;;;;;;;34.22;30.85;;;;;;;18.06;100.00;101256.09;5262906;28;20115;-67
2022/08/19 04:07:30;;;;;;;35.92;32.42;;;;;;;18.05;100.00;101270.38;5268477;28;20054;-67
2022/08/19 04:10:02;;;;;;;35.60;32.37;;;;;;;18.04;100.00;101266.06;5268293;28;20453;-67
2022/08/19 04:12:33;;;;;;;35.40;31.85;;;;;;;18.05;100.00;101265.06;5265467;28;20131;-67
2022/08/19 04:15:05;;;;;;;37.53;33.60;;;;;;;18.08;100.00;101255.97;5267229;28;20040;-67
2022/08/19 04:17:37;;;;;;;34.78;31.58;;;;;;;18.04;100.00;101262.59;5268519;28;20067;-68
2022/08/19 04:20:08;;;;;;;35.63;32.13;;;;;;;18.02;100.00;101261.91;5268473;28;20075;-67
2022/08/19 04:22:39;;;;;;;37.75;33.75;;;;;;;17.98;100.00;101264.91;5265535;28;20029;-67
2022/08/19 04:25:11;;;;;;;38.03;34.13;;;;;;;18.02;100.00;101267.22;5271789;28;20109;-67
2022/08/19 04:27:46;;;;;;;36.80;33.03;;;;;;;17.98;100.00;101264.09;5272766;28;20075;-67
2022/08/19 04:30:17;;;;;;;37.42;33.63;;;;;;;17.95;100.00;101259.09;5267001;28;20029;-67
2022/08/19 04:32:49;;;;;;;38.95;35.05;;;;;;;17.98;100.00;101253.47;5269611;28;20023;-67
2022/08/19 04:35:20;;;;;;;39.70;34.85;;;;;;;17.93;100.00;101250.50;5270567;28;20116;-67
2022/08/19 04:37:51;;;;;;;37.83;33.70;;;;;;;17.96;100.00;101248.34;5266562;28;20398;-67
2022/08/19 04:43:15;;;;;;;37.47;33.60;;;;;;;17.91;100.00;101257.78;5270930;28;20037;-67
2022/08/19 04:45:46;;;;;;;38.05;33.95;;;;;;;17.87;100.00;101256.47;5270612;28;20417;-67
2022/08/19 04:48:25;;;;;;;39.20;35.05;;;;;;;17.89;100.00;101257.16;5269190;28;20036;-69
2022/08/19 04:50:57;;;;;;;37.78;33.95;;;;;;;17.85;100.00;101266.44;5250981;28;20016;-69
2022/08/19 04:53:31;;;;;;;39.30;35.17;;;;;;;17.87;100.00;101267.91;5269977;28;20020;-67
2022/08/19 04:56:15;;;;;;;38.65;34.45;;;;;;;17.98;100.00;101272.03;5269324;28;20339;-67
2022/08/19 04:58:47;;;;;;;37.13;33.13;;;;;;;17.77;100.00;101267.28;5268798;28;20258;-67
2022/08/19 05:01:25;;;;;;;36.55;32.67;;;;;;;17.87;100.00;101286.47;5261329;28;20074;-67
2022/08/19 05:03:57;;;;;;;38.50;34.50;;;;;;;17.78;100.00;101278.69;5271011;28;20399;-67
2022/08/19 05:06:28;;;;;;;39.57;34.03;;;;;;;17.79;100.00;101286.47;5269476;28;20035;-66
2022/08/19 05:09:01;;;;;;;39.50;35.42;;;;;;;17.76;100.00;101286.78;5269907;28;20793;-66
2022/08/19 05:11:40;;;;;;;39.10;34.97;;;;;;;17.83;100.00;101285.13;5269693;28;20458;-67
2022/08/19 05:14:12;;;;;;;38.97;34.97;;;;;;;17.77;100.00;101291.13;5268547;28;20523;-66
2022/08/19 05:16:43;;;;;;;41.10;36.03;;;;;;;17.77;100.00;101292.91;5273119;28;20024;-66
2022/08/19 05:24:55;;;;;;;40.35;35.95;;;;;;;17.83;100.00;101313.47;5271823;28;20033;-67
2022/08/19 05:27:26;;;;;;;42.95;37.78;;;;;;;17.88;100.00;101316.44;5265589;28;20028;-67
2022/08/19 05:29:58;;;;;;;45.45;40.30;;;;;;;17.87;100.00;101320.09;5263549;28;20017;-67
2022/08/19 05:32:29;;;;;;;44.20;39.40;;;;;;;17.90;100.00;101317.13;5264500;28;20040;-67
2022/08/19 05:35:00;;;;;;;50.78;42.60;;;;;;;17.93;100.00;101327.38;5265747;28;20051;-67
2022/08/19 05:37:33;;;;;;;44.80;39.72;;;;;;;17.96;100.00;101325.25;5272545;28;20032;-67
2022/08/19 05:40:04;;;;;;;50.10;40.13;;;;;;;17.99;100.00;101332.00;5271248;28;20059;-67
2022/08/19 05:42:37;;;;;;;49.13;40.70;;;;;;;18.00;100.00;101333.69;5274416;28;20109;-67
2022/08/19 05:45:09;;;;;;;47.92;40.78;;;;;;;18.01;100.00;101323.91;5268354;28;20041;-67
2022/08/19 05:47:40;;;;;;;50.22;42.95;;;;;;;18.00;100.00;101331.03;5267730;28;20742;-67
2022/08/19 05:50:11;;;;;;;52.67;42.93;;;;;;;18.05;100.00;101336.66;5269320;28;20020;-67
2022/08/19 05:52:43;;;;;;;49.00;42.38;;;;;;;18.02;100.00;101336.97;5268540;28;20028;-67
2022/08/19 05:55:14;;;;;;;52.75;43.05;;;;;;;17.99;100.00;101334.66;5266450;28;20032;-67
2022/08/19 05:57:46;;;;;;;50.77;42.93;;;;;;;18.04;100.00;101332.34;5267861;28;20024;-66
2022/08/19 06:00:17;;;;;;;47.92;41.88;;;;;;;18.05;100.00;101328.69;5266560;28;20154;-67
2022/08/19 06:02:50;;;;;;;52.53;42.45;;;;;;;18.05;100.00;101315.44;5264164;28;20029;-66
2022/08/19 06:05:22;;;;;;;49.38;42.00;;;;;;;18.03;100.00;101317.41;5263166;28;20036;-66
2022/08/19 06:07:54;;;;;;;49.63;41.63;;;;;;;18.10;100.00;101310.44;5265918;28;20032;-66
2022/08/19 06:10:26;;;;;;;46.42;41.17;;;;;;;18.16;100.00;101311.63;5261986;28;20033;-67
2022/08/19 06:12:57;;;;;;;48.28;41.92;;;;;;;18.17;100.00;101306.13;5265586;28;20391;-67
2022/08/19 06:15:28;;;;;;;49.17;39.83;;;;;;;18.23;100.00;101302.81;5266735;28;20024;-67
2022/08/19 06:18:00;;;;;;;49.97;40.70;;;;;;;18.22;100.00;101308.28;5264549;28;20075;-67
2022/08/19 06:20:32;;;;;;;48.08;40.38;;;;;;;18.29;100.00;101300.47;5266922;28;20548;-67
2022/08/19 06:23:03;;;;;;;50.83;41.60;;;;;;;18.32;100.00;101308.09;5269044;28;20038;-69
2022/08/19 06:25:35;;;;;;;50.95;42.63;;;;;;;18.31;100.00;101314.41;5264908;28;20047;-69
2022/08/19 06:28:06;;;;;;;49.28;40.53;;;;;;;18.42;100.00;101308.75;5265431;28;20039;-69
2022/08/19 06:30:38;;;;;;;50.33;39.97;;;;;;;18.47;100.00;101311.72;5249690;28;20115;-69
2022/08/19 06:33:09;;;;;;;45.13;37.40;;;;;;;18.57;100.00;101308.88;5269350;28;20544;-66
2022/08/19 06:35:41;;;;;;;44.65;38.58;;;;;;;18.63;100.00;101310.81;5256109;28;20072;-67
2022/08/19 06:38:12;;;;;;;46.53;39.83;;;;;;;18.64;100.00;101310.66;5247754;28;20024;-67
2022/08/19 06:40:44;;;;;;;42.63;37.80;;;;;;;18.82;100.00;101299.00;5270870;28;20028;-69
2022/08/19 06:43:15;;;;;;;47.67;37.07;;;;;;;18.91;100.00;101304.13;5262037;28;20025;-69
2022/08/19 06:45:47;;;;;;;48.43;39.77;;;;;;;19.00;100.00;101302.22;5254235;28;20070;-67
2022/08/19 06:48:19;;;;;;;46.75;38.03;;;;;;;19.02;100.00;101312.69;5266959;28;20020;-67
2022/08/19 06:50:51;;;;;;;44.67;36.07;;;;;;;19.13;100.00;101306.97;5265997;28;20064;-66
2022/08/19 06:53:22;;;;;;;43.23;35.30;;;;;;;19.23;100.00;101306.75;5267978;28;20069;-67
2022/08/19 06:55:59;;;;;;;40.65;33.97;;;;;;;19.37;100.00;101312.16;5266726;28;20103;-68
2022/08/19 06:58:34;;;;;;;42.20;35.92;;;;;;;19.43;100.00;101314.09;5262636;28;20551;-67
2022/08/19 07:01:05;;;;;;;41.00;34.05;;;;;;;19.53;100.00;101307.72;5264656;28;20139;-69
2022/08/19 07:03:38;;;;;;;42.30;33.93;;;;;;;19.58;100.00;101306.16;5270406;28;20500;-69
2022/08/19 07:06:14;;;;;;;43.33;34.83;;;;;;;19.67;100.00;101307.81;5266141;28;20021;-67
2022/08/19 07:08:47;;;;;;;41.88;33.97;;;;;;;19.73;100.00;101305.44;5268524;28;20025;-67
2022/08/19 07:11:19;;;;;;;42.40;33.17;;;;;;;19.82;100.00;101302.53;5263926;28;20505;-67
2022/08/19 07:13:50;;;;;;;41.43;33.03;;;;;;;19.96;100.00;101303.56;5266073;28;20127;-67
2022/08/19 07:16:22;;;;;;;36.87;30.57;;;;;;;20.10;100.00;101304.59;5265583;28;20033;-69
2022/08/19 07:18:55;;;;;;;36.70;30.67;;;;;;;20.20;100.00;101309.66;5266078;28;20055;-67
2022/08/19 07:21:27;;;;;;;38.65;30.80;;;;;;;20.34;100.00;101312.34;5264198;28;20032;-67
2022/08/19 07:23:59;;;;;;;34.97;27.93;;;;;;;20.33;100.00;101309.84;5267763;28;20013;-67
2022/08/19 07:26:37;;;;;;;34.07;28.13;;;;;;;20.44;100.00;101322.69;5267596;28;20021;-67
2022/08/19 07:29:10;;;;;;;36.35;27.65;;;;;;;20.53;100.00;101332.28;5258859;28;20055;-67
2022/08/19 07:31:41;;;;;;;34.78;28.20;;;;;;;20.70;100.00;101324.94;5261586;28;20039;-67
2022/08/19 07:34:14;;;;;;;39.83;29.67;;;;;;;20.86;100.00;101334.56;5263805;28;20029;-67
2022/08/19 07:36:45;;;;;;;;;;;;;;;21.42;100.00;101331.31;5268352;28;20020;-67
2022/08/19 07:39:20;;;;;;;39.07;32.83;;;;;;;21.02;100.00;101337.00;5264962;28;19923;-68
2022/08/19 07:41:52;;;;;;;37.17;32.50;;;;;;;21.00;100.00;101332.88;5262729;28;20574;-68
2022/08/19 07:44:24;;;;;;;39.30;34.13;;;;;;;21.06;100.00;101335.63;5263691;28;20489;-67
2022/08/19 07:46:57;;;;;;;41.13;34.30;;;;;;;21.04;100.00;101336.81;5260309;28;20182;-67
2022/08/19 07:49:28;;;;;;;40.67;36.17;;;;;;;21.00;100.00;101341.69;5264448;28;20461;-67
2022/08/19 07:52:04;;;;;;;39.90;35.30;;;;;;;21.21;100.00;101351.56;5264201;28;20870;-68
2022/08/19 07:54:37;;;;;;;42.25;36.85;;;;;;;21.06;100.00;101332.97;5249298;28;20035;-67
2022/08/19 07:57:09;;;;;;;44.50;38.00;;;;;;;21.17;100.00;101357.47;5261330;28;20553;-67
2022/08/19 07:59:40;;;;;;;40.97;36.63;;;;;;;21.18;100.00;101367.94;5261178;28;20028;-68
2022/08/19 08:02:11;;;;;;;41.60;37.33;;;;;;;21.17;100.00;101365.44;5262703;28;20487;-68
2022/08/19 08:10:22;;;;;;;43.83;39.35;;;;;;;21.10;100.00;101365.38;5264590;28;20037;-67
2022/08/19 08:12:55;;;;;;;43.83;39.40;;;;;;;21.17;100.00;101368.13;5266995;28;20020;-68
2022/08/19 08:15:27;;;;;;;46.55;40.25;;;;;;;21.07;100.00;101366.59;5268245;28;20532;-68
2022/08/19 08:17:58;;;;;;;41.60;37.17;;;;;;;21.13;100.00;101365.00;5266779;28;20017;-67
2022/08/19 08:20:30;;;;;;;45.43;40.57;;;;;;;21.05;100.00;101367.78;5268444;28;20028;-67
2022/08/19 08:25:54;;;;;;;40.45;36.05;;;;;;;21.02;100.00;101365.47;5262153;28;20448;-67
2022/08/19 08:28:30;;;;;;;38.20;34.03;;;;;;;21.30;100.00;101377.09;5265008;28;20332;-67
2022/08/19 08:31:01;;;;;;;36.95;32.28;;;;;;;21.30;100.00;101374.44;5261073;28;20105;-67
2022/08/19 08:33:32;;;;;;;38.60;31.03;;;;;;;21.40;100.00;101386.66;5263232;28;20012;-67
2022/08/19 08:36:05;;;;;;;34.93;31.27;;;;;;;21.61;100.00;101392.84;5261388;28;20523;-67
2022/08/19 08:38:37;;;;;;;32.33;29.15;;;;;;;21.59;100.00;101383.38;5258177;28;20025;-67
2022/08/19 08:41:43;;;;;;;32.28;28.52;;;;;;;21.98;100.00;101390.13;5244686;28;20025;-70
2022/08/19 08:44:20;;;;;;;32.75;28.42;;;;;;;21.93;100.00;101400.53;5258946;28;20513;-67
2022/08/19 08:46:57;;;;;;;33.63;29.52;;;;;;;21.94;100.00;101397.69;5258772;28;20139;-67
2022/08/19 08:49:47;;;;;;;31.48;28.27;;;;;;;22.02;100.00;101405.56;5255675;28;20067;-67
2022/08/19 08:52:23;;;;;;;32.10;28.67;;;;;;;21.92;100.00;101405.03;5264046;28;20487;-67
2022/08/19 08:54:58;;;;;;;33.40;29.35;;;;;;;21.97;100.00;101407.13;5259174;28;20066;-67
2022/08/19 08:57:53;;;;;;;32.78;29.42;;;;;;;22.02;100.00;101399.41;5267010;28;20024;-67
2022/08/19 09:00:31;;;;;;;35.15;31.40;;;;;;;21.99;100.00;101397.09;5261356;28;20102;-68
2022/08/19 09:03:05;;;;;;;35.80;31.13;;;;;;;21.94;100.00;101395.03;5243287;28;20291;-67
2022/08/19 09:06:03;;;;;;;37.20;31.88;;;;;;;22.28;100.00;101390.81;5250731;28;20111;-67
2022/08/19 09:09:09;;;;;;;36.97;31.10;;;;;;;22.43;100.00;101391.53;5253129;28;20412;-67
2022/08/19 09:11:56;;;;;;;37.75;33.33;;;;;;;22.22;100.00;101388.91;5265835;28;20021;-67
2022/08/19 09:14:50;;;;;;;35.22;31.63;;;;;;;22.38;100.00;101393.94;5263572;28;20081;-67
2022/08/19 09:17:27;;;;;;;37.15;33.17;;;;;;;22.14;100.00;101391.72;5264457;28;20122;-67
2022/08/19 09:20:22;;;;;;;37.60;31.90;;;;;;;22.28;100.00;101396.16;5265592;28;20035;-67
2022/08/19 09:22:54;;;;;;;35.35;31.65;;;;;;;22.30;100.00;101396.78;5270994;28;20565;-68
2022/08/19 09:25:25;;;;;;;37.70;33.60;;;;;;;22.22;100.00;101402.25;5266776;28;20115;-67
2022/08/19 09:27:57;;;;;;;35.63;31.87;;;;;;;22.21;100.00;101405.94;5270275;28;20051;-67
2022/08/19 09:30:32;;;;;;;36.43;31.80;;;;;;;22.25;100.00;101412.56;5248336;28;20060;-67
2022/08/19 09:33:04;;;;;;;34.38;30.42;;;;;;;22.26;100.00;101411.53;5267016;28;20111;-69
2022/08/19 09:35:35;;;;;;;34.03;30.55;;;;;;;22.36;100.00;101408.53;5266899;28;20016;-69
2022/08/19 09:38:07;;;;;;;33.97;30.40;;;;;;;22.40;100.00;101401.78;5263529;28;20110;-69
2022/08/19 09:40:38;;;;;;;36.83;31.63;;;;;;;22.40;100.00;101410.63;5264864;28;20560;-69
2022/08/19 09:43:10;;;;;;;34.60;30.83;;;;;;;22.52;100.00;101411.72;5266841;28;20025;-69
2022/08/19 09:45:42;;;;;;;33.20;29.50;;;;;;;22.63;100.00;101406.88;5256597;28;20072;-69
2022/08/19 09:48:13;;;;;;;35.17;30.43;;;;;;;22.59;100.00;101409.09;5265601;28;20152;-69
2022/08/19 09:50:45;;;;;;;33.37;29.93;;;;;;;22.55;100.00;101413.19;5264195;28;20026;-69
2022/08/19 09:53:16;;;;;;;32.87;29.37;;;;;;;22.53;100.00;101407.19;5250273;28;20519;-69
2022/08/19 09:55:47;;;;;;;32.03;28.43;;;;;;;22.58;100.00;101408.28;5266730;28;20489;-69
2022/08/19 09:58:19;;;;;;;33.07;29.03;;;;;;;22.47;100.00;101421.34;5269110;28;20399;-69
2022/08/19 10:00:50;;;;;;;32.90;29.40;;;;;;;22.52;100.00;101413.56;5268023;28;20215;-69
2022/08/19 10:03:22;;;;;;;34.07;29.37;;;;;;;22.43;100.00;101414.75;5267879;28;20020;-69
2022/08/19 10:05:56;;;;;;;32.10;28.42;;;;;;;22.59;100.00;101420.59;5268409;28;20085;-69
2022/08/19 10:08:32;;;;;;;35.55;29.63;;;;;;;22.58;100.00;101418.97;5248626;28;20099;-69
2022/08/19 10:11:04;;;;;;;35.10;29.15;;;;;;;22.70;100.00;101426.44;5266461;28;20082;-69
2022/08/19 10:13:36;;;;;;;33.47;29.10;;;;;;;22.76;100.00;101425.63;5269549;28;20048;-69
2022/08/19 10:16:10;;;;;;;37.50;31.02;;;;;;;22.84;100.00;101425.47;5265926;28;20025;-69
2022/08/19 10:18:43;;;;;;;33.88;28.50;;;;;;;22.89;100.00;101415.03;5266776;28;20111;-69
2022/08/19 10:21:24;;;;;;;31.08;27.75;;;;;;;23.11;100.00;101412.28;5263421;28;20438;-69
2022/08/19 10:23:58;;;;;;;34.25;30.30;;;;;;;23.05;100.00;101411.22;5265351;28;20098;-69
2022/08/19 10:26:36;;;;;;;33.20;28.90;;;;;;;23.22;100.00;101409.88;5255576;28;20429;-69
2022/08/19 10:29:09;;;;;;;31.80;27.92;;;;;;;23.26;100.00;101405.78;5257093;28;20044;-69
2022/08/19 10:31:40;;;;;;;;;;;;;;;23.94;100.00;101403.09;5264231;28;20107;-69
2022/08/19 10:34:12;;;;;;;30.65;26.48;;;;;;;23.44;100.00;101410.56;5250779;28;20384;-69
2022/08/19 10:36:43;;;;;;;32.43;27.80;;;;;;;23.50;100.00;101407.09;5247478;28;20058;-69
2022/08/19 10:39:14;;;;;;;30.20;26.80;;;;;;;23.45;100.00;101411.38;5258835;28;20029;-69
2022/08/19 10:41:46;;;;;;;28.30;25.17;;;;;;;23.61;100.00;101415.56;5258519;28;20651;-69
2022/08/19 10:44:17;;;;;;;28.73;25.73;;;;;;;23.79;100.00;101419.31;5236478;28;20030;-69
2022/08/19 10:46:49;;;;;;;28.13;24.97;;;;;;;23.83;100.00;101405.50;5257824;28;20041;-69
2022/08/19 10:49:22;;;;;;;29.20;26.15;;;;;;;23.87;100.00;101407.59;5262454;28;20107;-69
2022/08/19 10:57:34;;;;;;;30.10;25.45;;;;;;;24.09;100.00;101400.19;5256609;28;20032;-67
2022/08/19 11:00:06;;;;;;;29.97;24.33;;;;;;;24.08;100.00;101395.88;5255712;28;20373;-67
2022/08/19 11:02:38;;;;;;;29.23;26.13;;;;;;;24.13;100.00;101398.75;5235472;28;20037;-67
2022/08/19 11:05:10;;;;;;;28.83;25.80;;;;;;;24.20;100.00;101398.75;5259097;28;20068;-67
2022/08/19 11:07:42;;;;;;;;;;;;;;;24.83;100.00;101399.09;5258992;28;20029;-67
2022/08/19 11:10:15;;;;;;;28.60;25.42;;;;;;;24.20;100.00;101404.91;5256837;28;20287;-67
2022/08/19 11:12:46;;;;;;;34.97;31.48;;;;;;;24.07;100.00;101393.41;5251272;28;20020;-69
2022/08/19 11:15:18;;;;;;;36.63;33.23;;;;;;;24.16;100.00;101398.31;5251212;28;20025;-70
2022/08/19 11:17:52;;;;;;;35.97;32.23;;;;;;;24.22;100.00;101388.66;5253874;28;20040;-68
2022/08/19 11:20:23;;;;;;;34.92;31.63;;;;;;;24.22;100.00;101400.19;5251172;28;20017;-67
2022/08/19 11:22:54;;;;;;;35.17;31.00;;;;;;;24.43;100.00;101396.47;5257962;28;20031;-67
2022/08/19 11:25:25;;;;;;;33.67;30.13;;;;;;;24.70;100.00;101402.63;5263707;28;20059;-68
2022/08/19 11:27:57;;;;;;;33.27;29.70;;;;;;;24.89;100.00;101397.41;5263705;28;20025;-68
2022/08/19 11:30:28;;;;;;;29.90;26.70;;;;;;;24.83;100.00;101395.59;5243990;28;20135;-67
2022/08/19 11:33:00;;;;;;;29.53;26.53;;;;;;;25.02;100.00;101391.19;5258869;28;20048;-68
2022/08/19 11:35:33;;;;;;;29.65;26.55;;;;;;;25.03;100.00;101382.09;5248097;28;20528;-67
2022/08/19 11:38:04;;;;;;;29.10;26.10;;;;;;;25.12;100.00;101378.19;5263223;28;20613;-68
2022/08/19 11:40:35;;;;;;;29.60;26.57;;;;;;;25.23;100.00;101380.22;5266424;28;20027;-68
2022/08/19 11:43:08;;;;;;;28.37;25.40;;;;;;;25.50;100.00;101372.81;5266774;28;20046;-68
2022/08/19 11:45:39;;;;;;;29.75;26.83;;;;;;;25.85;100.00;101373.22;5285071;22;20545;-65
2022/08/19 11:48:10;;;;;;;29.80;26.73;;;;;;;25.73;100.00;101380.31;5269086;28;20090;-66
2022/08/19 11:50:43;;;;;;;29.13;26.30;;;;;;;25.89;100.00;101374.44;5269237;28;20061;-66
2022/08/19 11:53:14;;;;;;;;;;;;;;;26.58;100.00;101377.94;5253222;28;20036;-66
2022/08/19 11:55:47;;;;;;;27.70;24.88;;;;;;;25.68;100.00;101372.06;5272470;28;20422;-67